Time;durP1;ratioP1;P1;durP2;ratioP2;P2;SDS_P1;SDS_P2;PMS_P1;PMS_P2;Temp;Humidity;BMP_temperature;BMP_pressure;BME280_temperature;BME280_humidity;BME280_pressure;Samples;Min_cycle;Max_cycle;Signal;HPM_P1;HPM_P2
2021/06/23 00:03:17;;;;;;;18.50;16.78;;;;;;;21.48;100.00;100116.95;262814;1097;114871;-73
2021/06/23 00:08:19;;;;;;;19.90;18.20;;;;;;;21.45;100.00;100120.80;262890;1097;115210;-72
2021/06/23 00:13:22;;;;;;;20.68;18.75;;;;;;;21.41;100.00;100119.38;262914;1097;115405;-75
2021/06/23 00:18:23;;;;;;;20.80;18.93;;;;;;;21.34;100.00;100119.05;263049;1097;115801;-72
2021/06/23 00:23:25;;;;;;;21.33;19.10;;;;;;;21.42;100.00;100115.67;263196;1098;114896;-75
2021/06/23 00:28:26;;;;;;;22.45;20.25;;;;;;;21.41;100.00;100119.38;263354;1099;115518;-75
2021/06/23 00:33:31;;;;;;;22.88;20.68;;;;;;;21.38;100.00;100124.22;262896;1097;115057;-76
2021/06/23 00:38:33;;;;;;;23.25;21.35;;;;;;;21.39;100.00;100132.20;262934;1098;115042;-76
2021/06/23 00:43:35;;;;;;;23.75;21.55;;;;;;;21.28;100.00;100144.01;262823;1097;115515;-72
2021/06/23 00:48:36;;;;;;;22.18;20.08;;;;;;;21.20;100.00;100148.41;262879;1099;115172;-73
2021/06/23 00:53:38;;;;;;;24.60;22.40;;;;;;;21.31;100.00;100145.58;262829;1098;115433;-73
2021/06/23 00:58:40;;;;;;;23.65;21.55;;;;;;;21.30;100.00;100149.28;262876;1097;115418;-76
2021/06/23 01:03:42;;;;;;;24.93;22.70;;;;;;;21.14;100.00;100142.55;262836;1097;115801;-76
2021/06/23 01:08:44;;;;;;;24.03;21.95;;;;;;;21.08;100.00;100153.89;262810;1098;115175;-73
2021/06/23 01:14:04;;;;;;;25.30;23.00;;;;;;;20.85;100.00;100161.34;262847;1098;115445;-73
2021/06/23 01:19:11;;;;;;;24.73;22.55;;;;;;;20.83;100.00;100175.03;262880;1099;115033;-71
2021/06/23 01:24:13;;;;;;;27.03;24.50;;;;;;;20.88;100.00;100182.76;262876;1098;115383;-76
2021/06/23 01:29:14;;;;;;;26.93;24.43;;;;;;;20.86;100.00;100185.58;262946;1100;115227;-75
2021/06/23 01:34:16;;;;;;;25.83;23.40;;;;;;;20.84;100.00;100179.45;262891;1099;115276;-74
2021/06/23 01:39:18;;;;;;;26.23;24.00;;;;;;;20.72;100.00;100188.66;262922;1098;115634;-73
2021/06/23 01:44:20;;;;;;;25.53;23.43;;;;;;;20.88;100.00;100187.30;262913;1098;115533;-72
2021/06/23 01:49:25;;;;;;;25.78;23.60;;;;;;;20.78;100.00;100198.95;262931;1100;115462;-75
2021/06/23 01:54:27;;;;;;;25.78;23.33;;;;;;;20.77;100.00;100196.36;262880;1100;115543;-76
2021/06/23 01:59:29;;;;;;;25.20;23.10;;;;;;;20.60;100.00;100195.06;262899;1097;115491;-72
2021/06/23 02:04:53;;;;;;;24.90;22.48;;;;;;;20.57;100.00;100198.05;262932;1097;115666;-73
2021/06/23 02:10:07;;;;;;;23.43;21.25;;;;;;;20.59;100.00;100172.56;262881;1100;115146;-77
2021/06/23 02:15:09;;;;;;;24.90;22.43;;;;;;;20.51;100.00;100181.31;262874;1098;114930;-76
2021/06/23 02:20:11;;;;;;;24.43;22.43;;;;;;;20.53;100.00;100181.21;262905;1099;114884;-74
2021/06/23 02:25:14;;;;;;;25.68;23.45;;;;;;;20.59;100.00;100183.39;262885;1097;115559;-72
2021/06/23 02:30:16;;;;;;;26.03;23.65;;;;;;;20.59;100.00;100190.64;262848;1099;114872;-75
2021/06/23 02:35:18;;;;;;;26.80;24.23;;;;;;;20.68;100.00;100201.56;262830;1100;115856;-74
2021/06/23 02:40:21;;;;;;;24.85;22.80;;;;;;;20.62;100.00;100206.63;262957;1098;115461;-76
2021/06/23 02:45:24;;;;;;;26.17;23.37;;;;;;;20.54;100.00;100228.96;262908;1098;115126;-73
2021/06/23 02:50:31;;;;;;;24.58;22.38;;;;;;;20.50;100.00;100247.31;262883;1098;115247;-76
2021/06/23 02:55:33;;;;;;;25.88;23.68;;;;;;;20.62;100.00;100247.25;262905;1097;116033;-77
2021/06/23 03:00:34;;;;;;;26.28;24.05;;;;;;;20.58;100.00;100243.10;262873;1097;115437;-72
2021/06/23 03:05:36;;;;;;;26.60;24.10;;;;;;;20.62;100.00;100242.69;262884;1097;115117;-74
2021/06/23 03:10:37;;;;;;;29.25;26.35;;;;;;;20.61;100.00;100259.07;262991;1097;115411;-73
2021/06/23 03:15:39;;;;;;;30.73;28.03;;;;;;;20.70;100.00;100261.00;263004;1098;116080;-76
2021/06/23 03:20:41;;;;;;;30.93;28.05;;;;;;;20.50;100.00;100268.97;262861;1098;115481;-73
2021/06/23 03:25:42;;;;;;;32.15;29.35;;;;;;;20.57;100.00;100260.33;262821;1098;115625;-72
2021/06/23 03:30:44;;;;;;;34.18;31.08;;;;;;;20.74;100.00;100286.86;262889;1097;115074;-77
2021/06/23 03:35:46;;;;;;;30.73;27.73;;;;;;;20.80;100.00;100299.03;262879;1098;115820;-73
2021/06/23 03:40:47;;;;;;;31.88;28.68;;;;;;;20.78;100.00;100304.59;262861;1099;115419;-75
2021/06/23 03:45:49;;;;;;;30.40;27.90;;;;;;;20.88;100.00;100301.95;262931;1099;114941;-73
2021/06/23 03:50:51;;;;;;;33.45;30.33;;;;;;;20.84;100.00;100304.06;262873;1100;115644;-76
2021/06/23 03:55:52;;;;;;;33.43;30.20;;;;;;;20.68;100.00;100309.02;262831;1100;115251;-78
2021/06/23 04:00:54;;;;;;;31.98;29.00;;;;;;;20.84;100.00;100306.78;262909;1097;115341;-77
2021/06/23 04:05:55;;;;;;;32.13;28.88;;;;;;;20.80;100.00;100332.38;262889;1098;115006;-73
2021/06/23 04:10:56;;;;;;;30.33;27.48;;;;;;;20.80;100.00;100329.67;262822;1097;115382;-73
2021/06/23 04:15:58;;;;;;;33.00;29.70;;;;;;;20.84;100.00;100333.86;262758;1098;115564;-80
2021/06/23 04:20:59;;;;;;;31.88;28.90;;;;;;;20.77;100.00;100339.91;262996;1096;115186;-71
2021/06/23 04:26:01;;;;;;;31.15;28.20;;;;;;;20.74;100.00;100349.16;262899;1100;115511;-77
2021/06/23 04:31:03;;;;;;;30.45;27.65;;;;;;;20.84;100.00;100347.41;262866;1097;115190;-76
2021/06/23 04:36:06;;;;;;;27.58;25.05;;;;;;;20.75;100.00;100340.05;262941;1096;115617;-76
2021/06/23 04:41:07;;;;;;;34.25;30.65;;;;;;;20.77;100.00;100332.66;262836;1096;115251;-74
2021/06/23 04:46:10;;;;;;;28.70;26.15;;;;;;;20.79;100.00;100340.65;262860;1096;115276;-73
2021/06/23 04:51:14;;;;;;;36.68;32.40;;;;;;;20.78;100.00;100339.80;262876;1094;114992;-72
2021/06/23 04:56:15;;;;;;;32.38;28.35;;;;;;;20.78;100.00;100334.38;262856;1095;115533;-72
2021/06/23 05:01:17;;;;;;;45.48;30.43;;;;;;;20.65;100.00;100349.91;262900;1096;115245;-73
2021/06/23 05:06:18;;;;;;;36.60;28.40;;;;;;;20.80;100.00;100342.38;263402;1095;115335;-73
2021/06/23 05:11:19;;;;;;;32.43;28.98;;;;;;;20.77;100.00;100365.16;263040;1096;115406;-74
2021/06/23 05:16:21;;;;;;;27.58;24.93;;;;;;;20.75;100.00;100367.13;263128;1095;115175;-74
2021/06/23 05:21:23;;;;;;;30.58;27.68;;;;;;;20.86;100.00;100360.81;262787;1095;115047;-75
2021/06/23 05:26:24;;;;;;;27.43;24.88;;;;;;;20.80;100.00;100354.05;262949;1096;114886;-73
2021/06/23 05:31:26;;;;;;;32.78;29.75;;;;;;;20.79;100.00;100363.16;262878;1095;115430;-76
2021/06/23 05:36:28;;;;;;;30.35;27.45;;;;;;;20.77;100.00;100369.70;262914;1096;115427;-75
2021/06/23 05:41:29;;;;;;;31.48;28.53;;;;;;;20.85;100.00;100368.09;262874;1095;115006;-77
2021/06/23 05:46:31;;;;;;;28.25;25.45;;;;;;;20.93;100.00;100382.84;262938;1095;115377;-73
2021/06/23 05:51:32;;;;;;;29.68;26.63;;;;;;;20.99;100.00;100379.62;262883;1096;114898;-74
2021/06/23 05:56:34;;;;;;;29.33;26.63;;;;;;;21.26;100.00;100384.52;262929;1095;114984;-73
2021/06/23 06:01:35;;;;;;;31.57;28.13;;;;;;;21.29;100.00;100408.67;262898;1095;115343;-74
2021/06/23 06:06:37;;;;;;;30.50;26.95;;;;;;;21.16;100.00;100397.16;262931;1096;115293;-73
2021/06/23 06:11:38;;;;;;;27.78;25.10;;;;;;;21.25;100.00;100387.38;262953;1097;115626;-73
2021/06/23 06:16:40;;;;;;;30.93;28.13;;;;;;;21.28;100.00;100390.69;262894;1095;115305;-74
2021/06/23 06:21:42;;;;;;;30.10;27.38;;;;;;;21.16;100.00;100403.42;262912;1096;115607;-73
2021/06/23 06:26:43;;;;;;;31.55;28.48;;;;;;;21.20;100.00;100392.34;262966;1095;115024;-72
2021/06/23 06:31:45;;;;;;;28.88;26.28;;;;;;;21.18;100.00;100397.86;262854;1096;115035;-74
2021/06/23 06:36:46;;;;;;;32.80;29.60;;;;;;;21.25;100.00;100393.64;262906;1096;115317;-73
2021/06/23 06:41:48;;;;;;;29.85;26.75;;;;;;;21.37;100.00;100405.30;262848;1100;114931;-73
2021/06/23 06:46:49;;;;;;;33.13;30.05;;;;;;;21.48;100.00;100412.52;262871;1098;115551;-75
2021/06/23 06:51:51;;;;;;;32.15;29.15;;;;;;;21.55;100.00;100426.42;262846;1098;115097;-73
2021/06/23 06:56:53;;;;;;;30.85;28.05;;;;;;;21.64;100.00;100431.94;262909;1100;114992;-73
2021/06/23 07:01:54;;;;;;;30.90;28.10;;;;;;;21.79;100.00;100437.88;262850;1098;115019;-77
2021/06/23 07:06:56;;;;;;;33.63;30.53;;;;;;;21.75;100.00;100446.41;262953;1097;114986;-72
2021/06/23 07:11:57;;;;;;;30.90;28.20;;;;;;;21.83;100.00;100443.05;262765;1098;116385;-73
2021/06/23 07:16:59;;;;;;;34.75;31.75;;;;;;;21.86;100.00;100450.91;262894;1098;114874;-74
2021/06/23 07:22:01;;;;;;;33.80;30.78;;;;;;;22.10;100.00;100451.48;262885;1098;115069;-73
2021/06/23 07:27:03;;;;;;;31.65;28.85;;;;;;;22.15;100.00;100447.50;262874;1097;115334;-73
2021/06/23 07:32:08;;;;;;;27.28;24.85;;;;;;;22.09;100.00;100433.48;262786;1099;115628;-74
2021/06/23 07:37:10;;;;;;;27.53;25.13;;;;;;;22.19;100.00;100438.95;262866;1100;115917;-73
2021/06/23 07:42:12;;;;;;;24.20;21.85;;;;;;;22.12;100.00;100438.66;262922;1099;114854;-74
2021/06/23 07:47:19;;;;;;;23.45;21.35;;;;;;;22.32;100.00;100438.73;262995;1100;115075;-76
2021/06/23 07:52:29;;;;;;;21.93;20.18;;;;;;;22.36;100.00;100437.45;263114;1097;115358;-76
2021/06/23 08:13:46;;;;;;;;;;;;;;;23.02;100.00;100446.95;262385;1098;115094;-76
2021/06/23 08:18:47;;;;;;;25.23;23.08;;;;;;;23.13;100.00;100455.96;262969;1097;101289;-73
2021/06/23 08:23:49;;;;;;;23.53;21.38;;;;;;;23.02;100.00;100457.83;262829;1097;115372;-75
2021/06/23 08:28:50;;;;;;;23.58;21.23;;;;;;;23.20;100.00;100457.14;262900;1097;114960;-74
2021/06/23 08:33:53;;;;;;;22.43;20.52;;;;;;;23.38;100.00;100469.05;262878;1097;115126;-73
2021/06/23 08:38:55;;;;;;;27.60;25.13;;;;;;;23.27;100.00;100474.61;262796;1099;115311;-74
2021/06/23 08:43:58;;;;;;;27.08;24.45;;;;;;;23.20;100.00;100476.17;263104;1097;115562;-78
2021/06/23 08:49:02;;;;;;;25.18;22.93;;;;;;;23.03;100.00;100484.02;263607;1097;114936;-74
2021/06/23 08:54:04;;;;;;;27.35;25.05;;;;;;;23.36;100.00;100509.13;262837;1098;115037;-74
2021/06/23 08:59:06;;;;;;;23.83;21.63;;;;;;;23.26;100.00;100518.27;262877;1097;114927;-70
2021/06/23 09:04:10;;;;;;;25.95;23.58;;;;;;;23.17;100.00;100519.98;262930;1098;115385;-73
2021/06/23 09:09:26;;;;;;;25.03;22.83;;;;;;;23.36;100.00;100525.44;262843;1098;114926;-73
2021/06/23 09:14:30;;;;;;;23.33;21.08;;;;;;;23.35;100.00;100533.75;262852;1097;114913;-74
2021/06/23 09:19:38;;;;;;;32.27;29.43;;;;;;;23.37;100.00;100539.88;262879;1097;114915;-74
2021/06/23 09:24:42;;;;;;;29.15;26.58;;;;;;;23.21;100.00;100537.72;262857;1098;115450;-73
2021/06/23 09:29:44;;;;;;;22.48;20.40;;;;;;;23.37;100.00;100532.60;262872;1098;115181;-73
2021/06/23 09:34:49;;;;;;;26.33;23.95;;;;;;;23.45;100.00;100533.75;262770;1100;115232;-73
2021/06/23 09:40:08;;;;;;;28.80;26.03;;;;;;;23.78;100.00;100534.33;262857;1097;115426;-73
2021/06/23 09:45:12;;;;;;;21.45;19.55;;;;;;;23.70;100.00;100551.38;262818;1097;115434;-74
2021/06/23 09:50:22;;;;;;;26.02;23.48;;;;;;;23.67;100.00;100549.81;262954;1097;115600;-74
2021/06/23 09:55:37;;;;;;;26.23;23.75;;;;;;;23.85;100.00;100546.36;262787;1098;115497;-73
2021/06/23 10:01:06;;;;;;;23.65;21.53;;;;;;;23.97;100.00;100538.94;262851;1099;115031;-73
2021/06/23 10:06:23;;;;;;;18.85;17.25;;;;;;;24.11;100.00;100543.05;262798;1098;114939;-73
2021/06/23 10:11:30;;;;;;;20.23;18.58;;;;;;;24.28;100.00;100544.19;262885;1097;115202;-71
2021/06/23 10:16:32;;;;;;;20.85;18.98;;;;;;;24.40;100.00;100539.40;262867;1097;115076;-74
2021/06/23 10:21:35;;;;;;;19.98;18.18;;;;;;;24.62;100.00;100544.48;262862;1098;115870;-73
2021/06/23 10:26:49;;;;;;;19.33;17.58;;;;;;;24.92;100.00;100544.38;262940;1097;114956;-72
2021/06/23 10:31:50;;;;;;;;;;;;;;;25.17;100.00;100548.26;263036;1097;115531;-73
2021/06/23 10:36:54;;;;;;;17.93;16.48;;;;;;;25.20;100.00;100544.39;262977;1098;101692;-73
2021/06/23 10:42:01;;;;;;;15.80;14.53;;;;;;;25.15;100.00;100550.30;262865;1098;115554;-74
2021/06/23 10:47:08;;;;;;;18.10;16.30;;;;;;;25.45;100.00;100540.94;262875;1098;114899;-73
2021/06/23 10:52:22;;;;;;;17.90;16.33;;;;;;;25.44;100.00;100541.10;262875;1098;114866;-74
2021/06/23 10:57:26;;;;;;;17.05;15.55;;;;;;;25.38;100.00;100555.33;262889;1098;115054;-73
2021/06/23 11:02:31;;;;;;;16.65;15.25;;;;;;;25.90;100.00;100544.58;262998;1098;115490;-73
2021/06/23 11:07:52;;;;;;;13.88;12.65;;;;;;;26.07;100.00;100539.29;263387;1099;115571;-73
2021/06/23 11:13:02;;;;;;;17.25;15.58;;;;;;;25.98;100.00;100541.05;262915;1099;115217;-73
2021/06/23 11:18:24;;;;;;;17.30;15.90;;;;;;;26.39;100.00;100535.05;262822;1097;115172;-73
2021/06/23 11:23:46;;;;;;;18.43;16.85;;;;;;;26.20;100.00;100538.84;262866;1097;115006;-73
2021/06/23 11:28:52;;;;;;;18.25;16.75;;;;;;;26.36;100.00;100533.50;262909;1098;115432;-73
2021/06/23 11:33:57;;;;;;;17.88;16.33;;;;;;;26.57;100.00;100519.42;262917;1097;115603;-74
2021/06/23 11:38:59;;;;;;;17.33;15.85;;;;;;;26.90;100.00;100506.97;262907;1097;115610;-74
2021/06/23 11:44:01;;;;;;;18.63;16.93;;;;;;;26.54;100.00;100514.30;262842;1097;114916;-73
2021/06/23 11:49:02;;;;;;;15.35;14.10;;;;;;;26.39;100.00;100502.26;262879;1097;115108;-73
2021/06/23 11:54:05;;;;;;;18.53;16.58;;;;;;;26.37;100.00;100501.55;262822;1098;115049;-73
2021/06/23 11:59:07;;;;;;;16.55;15.20;;;;;;;26.21;100.00;100497.73;262842;1098;115020;-74
2021/06/23 12:04:08;;;;;;;16.15;14.73;;;;;;;26.84;100.00;100503.88;262898;1095;115551;-73
2021/06/23 12:09:10;;;;;;;18.40;16.78;;;;;;;26.62;100.00;100509.90;262807;1095;115477;-73
2021/06/23 12:14:11;;;;;;;16.90;15.60;;;;;;;26.76;100.00;100506.58;262853;1095;115213;-74
2021/06/23 12:19:13;;;;;;;15.68;14.38;;;;;;;27.00;100.00;100502.19;262857;1095;115776;-75
2021/06/23 12:24:15;;;;;;;17.15;15.60;;;;;;;26.80;100.00;100518.88;262881;1095;114994;-76
2021/06/23 12:29:16;;;;;;;18.90;17.15;;;;;;;26.42;100.00;100523.81;262970;1095;115031;-73
2021/06/23 12:34:17;;;;;;;18.33;16.78;;;;;;;26.13;100.00;100524.12;263380;1095;115329;-74
2021/06/23 12:39:19;;;;;;;17.48;16.00;;;;;;;26.20;100.00;100500.61;262955;1095;114881;-74
2021/06/23 12:44:21;;;;;;;17.68;16.18;;;;;;;26.55;100.00;100520.61;262854;1096;115021;-73
2021/06/23 12:49:24;;;;;;;19.03;16.68;;;;;;;26.38;100.00;100508.73;262891;1096;114950;-76
2021/06/23 12:54:26;;;;;;;17.78;16.05;;;;;;;26.33;100.00;100497.45;262980;1096;115137;-76
2021/06/23 12:59:31;;;;;;;16.20;14.83;;;;;;;26.51;100.00;100487.28;262859;1095;115183;-77
2021/06/23 13:04:33;;;;;;;15.65;14.23;;;;;;;26.45;100.00;100514.42;262938;1096;114910;-76
2021/06/23 13:09:35;;;;;;;16.75;15.30;;;;;;;26.47;100.00;100534.23;262901;1095;115015;-77
2021/06/23 13:14:36;;;;;;;16.45;15.13;;;;;;;26.48;100.00;100542.28;263061;1096;115594;-78
2021/06/23 13:19:38;;;;;;;15.85;14.58;;;;;;;26.17;100.00;100529.10;262916;1095;115146;-75
2021/06/23 13:24:40;;;;;;;14.48;13.15;;;;;;;26.44;100.00;100529.95;262925;1095;115403;-75
2021/06/23 13:29:43;;;;;;;18.90;17.13;;;;;;;26.14;100.00;100537.63;262877;1095;115347;-74
2021/06/23 13:34:44;;;;;;;17.50;16.03;;;;;;;25.98;100.00;100541.05;262896;1095;115413;-74
2021/06/23 13:39:46;;;;;;;17.43;15.75;;;;;;;26.05;100.00;100538.55;262886;1096;115522;-73
2021/06/23 13:44:47;;;;;;;17.93;16.10;;;;;;;26.01;100.00;100546.20;262907;1096;115443;-76
2021/06/23 13:49:49;;;;;;;15.40;14.10;;;;;;;26.14;100.00;100548.56;262824;1095;115474;-75
2021/06/23 13:54:51;;;;;;;14.63;13.43;;;;;;;26.41;100.00;100549.42;262857;1096;115659;-73
2021/06/23 13:59:53;;;;;;;16.58;15.18;;;;;;;26.36;100.00;100538.97;262867;1096;115399;-75
2021/06/23 14:04:54;;;;;;;15.05;13.85;;;;;;;26.27;100.00;100539.92;262892;1095;115653;-73
2021/06/23 14:09:56;;;;;;;16.50;15.08;;;;;;;26.09;100.00;100534.50;262173;1096;300332;-73
2021/06/23 14:14:57;;;;;;;15.08;13.83;;;;;;;25.92;100.00;100548.02;262863;1098;115502;-74
2021/06/23 14:19:59;;;;;;;15.58;14.23;;;;;;;25.59;100.00;100542.25;262820;1098;115230;-73
2021/06/23 14:25:02;;;;;;;15.48;14.18;;;;;;;25.55;100.00;100549.05;262852;1099;115284;-79
2021/06/23 14:30:06;;;;;;;15.38;14.05;;;;;;;25.66;100.00;100541.62;262830;1098;115488;-74
2021/06/23 14:35:09;;;;;;;14.15;12.93;;;;;;;25.74;100.00;100542.58;262897;1099;115108;-73
2021/06/23 14:40:12;;;;;;;15.23;13.93;;;;;;;25.77;100.00;100544.13;262869;1097;115107;-74
2021/06/23 14:45:14;;;;;;;15.68;14.13;;;;;;;25.80;100.00;100543.80;262921;1097;114996;-73
2021/06/23 14:50:17;;;;;;;15.85;14.43;;;;;;;26.06;100.00;100553.92;262862;1097;114912;-73
2021/06/23 14:55:23;;;;;;;14.03;12.83;;;;;;;26.09;100.00;100559.09;262896;1097;115528;-74
2021/06/23 15:00:25;;;;;;;13.50;12.40;;;;;;;26.28;100.00;100557.19;262843;1100;115570;-72
2021/06/23 15:05:27;;;;;;;15.05;13.60;;;;;;;26.38;100.00;100568.86;262839;1097;115376;-74
2021/06/23 15:10:29;;;;;;;13.28;12.08;;;;;;;26.13;100.00;100576.89;262854;1098;115039;-74
2021/06/23 15:15:30;;;;;;;15.05;13.85;;;;;;;25.67;100.00;100576.09;262904;1099;115500;-74
2021/06/23 15:20:32;;;;;;;14.20;12.98;;;;;;;25.66;100.00;100579.83;262852;1100;115185;-74
2021/06/23 15:25:34;;;;;;;14.28;13.15;;;;;;;25.52;100.00;100573.91;262868;1098;115379;-72
2021/06/23 15:30:35;;;;;;;15.28;13.98;;;;;;;25.43;100.00;100569.39;262836;1098;116168;-73
2021/06/23 15:35:38;;;;;;;15.70;14.23;;;;;;;25.39;100.00;100578.88;262892;1097;116215;-76
2021/06/23 15:40:43;;;;;;;13.93;12.65;;;;;;;25.42;100.00;100573.97;262771;1098;115022;-75
2021/06/23 15:46:40;;;;;;;15.25;13.95;;;;;;;25.94;100.00;100553.31;262826;1097;115247;-72
2021/06/23 15:51:43;;;;;;;15.98;14.58;;;;;;;26.56;100.00;100546.93;262994;1097;115386;-75
2021/06/23 15:56:44;;;;;;;14.48;13.33;;;;;;;26.14;100.00;100551.30;262799;1099;115566;-73
2021/06/23 16:01:46;;;;;;;14.63;13.30;;;;;;;25.78;100.00;100563.08;262819;1097;115337;-76
2021/06/23 16:06:47;;;;;;;15.35;14.05;;;;;;;25.72;100.00;100576.51;262915;1097;115734;-75
2021/06/23 16:11:49;;;;;;;14.90;13.35;;;;;;;25.49;100.00;100578.81;262927;1097;115562;-73
2021/06/23 16:16:51;;;;;;;15.57;14.17;;;;;;;25.45;100.00;100578.26;262990;1098;115107;-73
2021/06/23 16:21:58;;;;;;;15.45;14.13;;;;;;;25.34;100.00;100575.73;263153;1098;115465;-73
2021/06/23 16:27:01;;;;;;;15.93;14.25;;;;;;;25.24;100.00;100576.64;262224;1100;115596;-76
2021/06/23 16:32:03;;;;;;;15.78;14.43;;;;;;;25.34;100.00;100575.73;262958;1097;115137;-73
2021/06/23 16:37:05;;;;;;;17.25;15.73;;;;;;;25.08;100.00;100565.55;262823;1100;115788;-75
2021/06/23 16:42:07;;;;;;;18.43;16.83;;;;;;;25.09;100.00;100572.73;262876;1098;115965;-72
2021/06/23 16:47:08;;;;;;;16.15;14.78;;;;;;;25.19;100.00;100573.52;262812;1100;115422;-74
2021/06/23 16:52:10;;;;;;;15.53;14.13;;;;;;;25.22;100.00;100584.14;262877;1098;115384;-74
2021/06/23 16:57:12;;;;;;;15.60;14.28;;;;;;;25.19;100.00;100589.89;262899;1097;115021;-73
2021/06/23 17:02:15;;;;;;;15.20;13.63;;;;;;;25.22;100.00;100577.81;262869;1097;115512;-74
2021/06/23 17:07:25;;;;;;;14.85;13.58;;;;;;;25.07;100.00;100574.74;262833;1100;115059;-75
2021/06/23 17:12:26;;;;;;;14.70;13.60;;;;;;;25.05;100.00;100565.84;262832;1097;114965;-74
2021/06/23 17:17:28;;;;;;;15.35;14.05;;;;;;;24.88;100.00;100581.98;262976;1097;114999;-74
2021/06/23 17:22:29;;;;;;;15.38;14.08;;;;;;;24.89;100.00;100580.98;262841;1100;115724;-74
2021/06/23 17:27:31;;;;;;;13.90;12.78;;;;;;;24.71;100.00;100577.34;262845;1100;115158;-73
2021/06/23 17:32:33;;;;;;;13.23;11.95;;;;;;;24.60;100.00;100560.13;262921;1097;115081;-74
2021/06/23 17:37:35;;;;;;;14.93;13.68;;;;;;;24.41;100.00;100562.91;262850;1100;115458;-74
2021/06/23 17:42:36;;;;;;;15.98;14.63;;;;;;;24.48;100.00;100569.49;262876;1099;115274;-74
2021/06/23 17:47:39;;;;;;;15.20;13.83;;;;;;;24.40;100.00;100569.36;262714;1098;115168;-73
2021/06/23 17:52:40;;;;;;;15.00;13.40;;;;;;;24.32;100.00;100565.51;262787;1099;116035;-73
2021/06/23 17:57:42;;;;;;;14.20;13.03;;;;;;;24.19;100.00;100570.41;262812;1098;115737;-74
2021/06/23 18:02:43;;;;;;;16.10;14.60;;;;;;;23.88;100.00;100573.30;262755;1098;115121;-72
2021/06/23 18:07:45;;;;;;;16.33;15.00;;;;;;;23.90;100.00;100570.42;262867;1100;115699;-77
2021/06/23 18:12:47;;;;;;;15.85;14.53;;;;;;;23.72;100.00;100573.84;262813;1098;116309;-78
2021/06/23 18:17:48;;;;;;;17.45;15.78;;;;;;;23.68;100.00;100575.15;262957;1097;115187;-77
2021/06/23 18:22:50;;;;;;;16.70;15.30;;;;;;;23.62;100.00;100589.33;262956;1099;115673;-74
2021/06/23 18:27:53;;;;;;;16.65;15.15;;;;;;;23.64;100.00;100592.77;262929;1099;115040;-75
2021/06/23 18:32:54;;;;;;;16.40;14.68;;;;;;;23.46;100.00;100601.61;262883;1097;115444;-77
2021/06/23 18:37:56;;;;;;;17.10;15.38;;;;;;;23.32;100.00;100605.61;263117;1097;114926;-77
2021/06/23 18:42:59;;;;;;;18.38;16.68;;;;;;;23.17;100.00;100617.87;263281;1099;115538;-78
2021/06/23 18:48:01;;;;;;;16.88;15.13;;;;;;;23.34;100.00;100635.38;262931;1098;115996;-76
2021/06/23 18:53:04;;;;;;;17.25;15.68;;;;;;;23.53;100.00;100650.89;262869;1097;115648;-77
2021/06/23 18:58:08;;;;;;;16.45;14.80;;;;;;;23.38;100.00;100664.88;262903;1097;115125;-77
2021/06/23 19:03:09;;;;;;;;;;;;;;;23.49;100.00;100660.31;262835;1099;115438;-77
2021/06/23 19:08:11;;;;;;;16.70;15.18;;;;;;;23.47;100.00;100665.05;262997;1097;101533;-78
2021/06/23 19:13:12;;;;;;;17.45;15.73;;;;;;;23.51;100.00;100666.48;262889;1098;115091;-79
2021/06/23 19:18:14;;;;;;;17.10;15.60;;;;;;;23.54;100.00;100674.38;262769;1100;115193;-84
2021/06/23 19:23:17;;;;;;;15.78;14.25;;;;;;;23.35;100.00;100695.06;262842;1097;115317;-85
2021/06/23 19:28:18;;;;;;;17.20;15.70;;;;;;;23.41;100.00;100707.27;262443;1098;115224;-78
2021/06/23 19:33:20;;;;;;;22.83;20.50;;;;;;;23.41;100.00;100709.98;262855;1099;116171;-76
2021/06/23 19:38:22;;;;;;;17.13;15.73;;;;;;;23.39;100.00;100712.84;262855;1098;115562;-77
2021/06/23 19:43:24;;;;;;;16.95;15.45;;;;;;;23.39;100.00;100707.41;262499;1100;116680;-77
2021/06/23 19:48:26;;;;;;;17.90;16.40;;;;;;;23.23;100.00;100709.77;262826;1096;115395;-76
2021/06/23 19:53:27;;;;;;;18.03;16.20;;;;;;;23.19;100.00;100708.30;262853;1096;114893;-77
2021/06/23 19:58:29;;;;;;;17.85;16.15;;;;;;;23.19;100.00;100711.02;262931;1099;115340;-78
2021/06/23 20:03:31;;;;;;;17.95;15.98;;;;;;;23.26;100.00;100704.03;263606;1098;114905;-79
2021/06/23 20:08:33;;;;;;;18.65;17.05;;;;;;;23.13;100.00;100709.69;262806;1098;115593;-78
2021/06/23 20:13:34;;;;;;;19.20;16.53;;;;;;;23.12;100.00;100707.11;263175;1097;115453;-77
2021/06/23 20:18:37;;;;;;;18.13;16.25;;;;;;;22.94;100.00;100694.13;262820;1100;115305;-76
2021/06/23 20:23:38;;;;;;;19.28;17.58;;;;;;;23.06;100.00;100684.89;262933;1098;115362;-79
2021/06/23 20:28:40;;;;;;;21.50;19.70;;;;;;;22.97;100.00;100682.13;262797;1098;115335;-71
2021/06/23 20:33:41;;;;;;;19.13;17.40;;;;;;;22.86;100.00;100696.66;262848;1097;115527;-72
2021/06/23 20:38:44;;;;;;;18.63;17.03;;;;;;;22.99;100.00;100689.14;262877;1097;115137;-72
2021/06/23 20:43:45;;;;;;;17.45;15.55;;;;;;;23.08;100.00;100685.63;262880;1098;115788;-73
2021/06/23 20:48:47;;;;;;;17.33;15.85;;;;;;;23.02;100.00;100691.60;262774;1097;115030;-72
2021/06/23 20:53:49;;;;;;;15.93;14.43;;;;;;;23.04;100.00;100686.91;262840;1098;115624;-73
2021/06/23 20:58:51;;;;;;;18.30;16.40;;;;;;;22.88;100.00;100694.67;262816;1098;115518;-72
2021/06/23 21:04:00;;;;;;;17.68;15.95;;;;;;;22.85;100.00;100689.48;262935;1100;115602;-73
2021/06/23 21:09:01;;;;;;;18.50;16.25;;;;;;;22.89;100.00;100685.53;262788;1098;115205;-77
2021/06/23 21:14:16;;;;;;;16.65;14.80;;;;;;;22.92;100.00;100685.24;263094;1097;115188;-76
2021/06/23 21:19:29;;;;;;;20.28;16.48;;;;;;;22.81;100.00;100685.33;263478;1098;115350;-72
2021/06/23 21:24:41;;;;;;;18.33;16.50;;;;;;;22.60;100.00;100672.63;262762;1098;114957;-70
2021/06/23 21:29:51;;;;;;;18.05;16.45;;;;;;;22.49;100.00;100669.95;262806;1100;115396;-72
2021/06/23 21:35:01;;;;;;;18.53;16.83;;;;;;;22.50;100.00;100668.97;262899;1097;115437;-72
2021/06/23 21:40:18;;;;;;;18.13;16.30;;;;;;;22.52;100.00;100670.55;262829;1099;115178;-75
2021/06/23 21:45:20;;;;;;;16.35;14.58;;;;;;;22.43;100.00;100666.78;262941;1097;115305;-75
2021/06/23 21:50:22;;;;;;;17.40;15.98;;;;;;;22.43;100.00;100669.50;262833;1100;115180;-76
2021/06/23 21:55:24;;;;;;;17.95;16.25;;;;;;;22.40;100.00;100660.75;262892;1096;114976;-71
2021/06/23 22:00:25;;;;;;;17.60;15.95;;;;;;;22.41;100.00;100655.17;262853;1098;115605;-71
2021/06/23 22:05:27;;;;;;;18.43;17.03;;;;;;;22.42;100.00;100661.49;262820;1100;115224;-71
2021/06/23 22:10:28;;;;;;;20.38;18.60;;;;;;;22.24;100.00;100647.60;262876;1097;115158;-72
2021/06/23 22:15:32;;;;;;;19.23;17.48;;;;;;;22.11;100.00;100648.66;262976;1098;115081;-71
2021/06/23 22:20:35;;;;;;;17.93;16.35;;;;;;;22.05;100.00;100651.89;262758;1098;116060;-71
2021/06/23 22:25:36;;;;;;;19.83;17.97;;;;;;;21.93;100.00;100650.19;262936;1098;115188;-76
2021/06/23 22:30:38;;;;;;;21.65;19.73;;;;;;;21.94;100.00;100646.48;262857;1097;115634;-72